Time;durP1;ratioP1;P1;durP2;ratioP2;P2;SDS_P1;SDS_P2;PMS_P1;PMS_P2;Temp;Humidity;BMP_temperature;BMP_pressure;BME280_temperature;BME280_humidity;BME280_pressure;Samples;Min_cycle;Max_cycle;Signal;HPM_P1;HPM_P2
2023/09/18 00:00:49;;;;;;;10.20;9.20;;;;;;;18.13;100.00;100953.06;4973451;28;20245;-46
2023/09/18 00:03:17;;;;;;;10.38;9.27;;;;;;;18.12;100.00;100951.31;4967954;28;20679;-45
2023/09/18 00:05:43;;;;;;;9.73;8.82;;;;;;;18.11;100.00;100950.44;4968233;28;20204;-47
2023/09/18 00:08:08;;;;;;;10.15;9.02;;;;;;;18.05;100.00;100939.16;4975198;28;20641;-47
2023/09/18 00:10:35;;;;;;;10.90;9.48;;;;;;;18.02;100.00;100932.09;4969983;28;20232;-49
2023/09/18 00:13:01;;;;;;;10.88;9.25;;;;;;;18.06;100.00;100932.75;4965506;28;20185;-47
2023/09/18 00:15:26;;;;;;;10.15;9.15;;;;;;;18.04;100.00;100919.31;4970061;28;20652;-50
2023/09/18 00:17:52;;;;;;;11.43;8.90;;;;;;;18.05;100.00;100929.16;4971368;28;20189;-46
2023/09/18 00:20:18;;;;;;;10.90;9.77;;;;;;;18.04;100.00;100929.28;4967453;28;20206;-49
2023/09/18 00:22:44;;;;;;;9.82;8.93;;;;;;;18.01;100.00;100922.22;4968194;28;20211;-48
2023/09/18 00:25:09;;;;;;;10.38;9.38;;;;;;;17.95;100.00;100921.75;4971665;28;20191;-46
2023/09/18 00:27:36;;;;;;;11.90;9.88;;;;;;;17.92;100.00;100914.72;4971938;28;20197;-47
2023/09/18 00:30:03;;;;;;;11.35;9.77;;;;;;;17.97;100.00;100907.13;4966425;28;20665;-46
2023/09/18 00:32:29;;;;;;;10.90;9.18;;;;;;;17.92;100.00;100904.72;4980785;28;20795;-47
2023/09/18 00:34:55;;;;;;;11.10;9.38;;;;;;;17.95;100.00;100891.94;4971956;28;20585;-48
2023/09/18 00:37:20;;;;;;;10.50;9.50;;;;;;;17.94;100.00;100892.94;4968026;28;20206;-47
2023/09/18 00:39:46;;;;;;;10.95;9.82;;;;;;;17.90;100.00;100884.13;4971941;28;20613;-48
2023/09/18 00:42:13;;;;;;;10.35;9.27;;;;;;;17.91;100.00;100886.75;4976990;28;20907;-46
2023/09/18 00:44:41;;;;;;;11.55;9.90;;;;;;;17.89;100.00;100879.69;4972345;28;20178;-48
2023/09/18 00:47:12;;;;;;;11.35;10.27;;;;;;;17.90;100.00;100882.28;4964684;28;20309;-47
2023/09/18 00:49:40;;;;;;;12.75;9.80;;;;;;;17.95;100.00;100868.44;4972616;28;20201;-47
2023/09/18 00:52:08;;;;;;;9.95;8.98;;;;;;;17.86;100.00;100864.50;4976484;28;20711;-47
2023/09/18 00:54:35;;;;;;;10.77;9.77;;;;;;;17.84;100.00;100860.16;4968141;28;20197;-46
2023/09/18 00:57:00;;;;;;;9.85;8.95;;;;;;;17.87;100.00;100860.81;4972331;28;20205;-47
2023/09/18 00:59:28;;;;;;;11.27;9.55;;;;;;;17.82;100.00;100854.84;4971969;28;20181;-47
2023/09/18 01:01:54;;;;;;;11.00;9.77;;;;;;;17.83;100.00;100861.13;4974514;28;20293;-46
2023/09/18 01:04:21;;;;;;;10.80;9.45;;;;;;;17.83;100.00;100853.88;4963985;28;20273;-47
2023/09/18 01:06:48;;;;;;;10.98;9.88;;;;;;;17.81;100.00;100847.66;4983397;28;20652;-46
2023/09/18 01:09:18;;;;;;;11.77;9.48;;;;;;;17.79;100.00;100855.00;4973422;28;20632;-48
2023/09/18 01:12:09;;;;;;;11.32;9.95;;;;;;;17.78;100.00;100844.28;4971482;28;20205;-48
2023/09/18 01:14:57;;;;;;;11.90;9.60;;;;;;;17.81;100.00;100849.50;4975287;28;20245;-45
2023/09/18 01:17:24;;;;;;;10.57;9.40;;;;;;;17.75;100.00;100836.34;4978480;28;20213;-46
2023/09/18 01:19:50;;;;;;;10.13;9.13;;;;;;;17.81;100.00;100863.03;4982257;28;20414;-47
2023/09/18 01:22:19;;;;;;;11.23;9.80;;;;;;;17.76;100.00;100855.22;4971836;28;20767;-46
2023/09/18 01:24:49;;;;;;;12.52;10.15;;;;;;;17.73;100.00;100868.97;4976352;28;20166;-47
2023/09/18 01:27:17;;;;;;;10.60;9.27;;;;;;;17.74;100.00;100850.88;4975586;28;20191;-47
2023/09/18 01:29:43;;;;;;;10.38;9.32;;;;;;;17.73;100.00;100855.41;4978332;28;20185;-48
2023/09/18 01:32:09;;;;;;;12.45;9.35;;;;;;;17.72;100.00;100861.81;4972319;28;20288;-48
2023/09/18 01:34:39;;;;;;;11.55;9.57;;;;;;;17.70;100.00;100856.50;4975913;28;20213;-47
2023/09/18 01:37:08;;;;;;;10.32;9.38;;;;;;;17.74;100.00;100857.16;4969590;28;20297;-48
2023/09/18 01:39:35;;;;;;;9.73;8.82;;;;;;;17.73;100.00;100860.84;4977836;28;20180;-47
2023/09/18 01:42:06;;;;;;;9.93;9.13;;;;;;;17.72;100.00;100853.69;4965688;28;20205;-46
2023/09/18 01:44:33;;;;;;;10.68;9.52;;;;;;;17.67;100.00;100850.44;4972330;28;20517;-47
2023/09/18 01:47:01;;;;;;;10.43;9.43;;;;;;;17.67;100.00;100850.44;4972299;28;20182;-47
2023/09/18 01:49:31;;;;;;;9.98;8.98;;;;;;;17.67;100.00;100842.31;4975017;28;20194;-48
2023/09/18 01:51:57;;;;;;;11.88;9.23;;;;;;;17.65;100.00;100831.56;4969113;28;20309;-48
2023/09/18 01:54:23;;;;;;;10.20;9.20;;;;;;;17.57;100.00;100819.50;4967111;28;20848;-47
2023/09/18 01:56:48;;;;;;;10.18;9.18;;;;;;;17.53;100.00;100818.84;4967525;28;20577;-48
2023/09/18 01:59:14;;;;;;;9.88;9.05;;;;;;;17.50;100.00;100821.78;4969798;28;20184;-46
2023/09/18 02:01:39;;;;;;;10.60;9.63;;;;;;;17.48;100.00;100812.88;4961112;28;20316;-47
2023/09/18 02:04:05;;;;;;;12.57;8.98;;;;;;;17.45;100.00;100818.50;4969676;28;20173;-47
2023/09/18 02:06:31;;;;;;;12.60;9.68;;;;;;;17.48;100.00;100802.03;4971283;28;20190;-48
2023/09/18 02:08:56;;;;;;;10.85;9.85;;;;;;;17.48;100.00;100796.63;4972607;28;20191;-46
2023/09/18 02:11:21;;;;;;;9.93;8.93;;;;;;;17.50;100.00;100794.69;4962427;28;20313;-48
2023/09/18 02:13:47;;;;;;;11.15;9.30;;;;;;;17.46;100.00;100785.88;4961594;28;20196;-48
2023/09/18 02:16:12;;;;;;;10.23;8.90;;;;;;;17.55;100.00;100786.25;4972436;28;20276;-46
2023/09/18 02:18:38;;;;;;;10.05;9.05;;;;;;;17.47;100.00;100775.91;4970520;28;20187;-46
2023/09/18 02:21:04;;;;;;;9.57;8.50;;;;;;;17.55;100.00;100765.44;4962026;28;20309;-48
2023/09/18 02:23:29;;;;;;;9.77;8.77;;;;;;;17.47;100.00;100751.53;4964678;28;20515;-47
2023/09/18 02:25:57;;;;;;;10.32;9.43;;;;;;;17.47;100.00;100759.66;4966600;28;20264;-46
2023/09/18 02:28:22;;;;;;;9.88;8.88;;;;;;;17.48;100.00;100742.44;4968689;28;20193;-48
2023/09/18 02:30:48;;;;;;;10.77;9.23;;;;;;;17.47;100.00;100743.41;4964362;28;20625;-48
2023/09/18 02:33:13;;;;;;;10.68;8.88;;;;;;;17.51;100.00;100742.22;4988863;28;20504;-47
2023/09/18 02:35:40;;;;;;;15.07;9.10;;;;;;;17.55;100.00;100742.88;4964782;28;20319;-46
2023/09/18 02:38:06;;;;;;;9.40;8.50;;;;;;;17.54;100.00;100733.91;4967113;28;20178;-48
2023/09/18 02:40:31;;;;;;;9.02;8.23;;;;;;;17.52;100.00;100726.88;4963045;28;20302;-47
2023/09/18 02:42:57;;;;;;;9.20;8.30;;;;;;;17.64;100.00;100731.41;4969862;28;20787;-46
2023/09/18 02:45:23;;;;;;;10.15;8.73;;;;;;;17.65;100.00;100723.19;4962804;28;20178;-49
2023/09/18 02:47:48;;;;;;;9.45;8.27;;;;;;;17.63;100.00;100727.84;4964164;28;20174;-47
2023/09/18 02:50:14;;;;;;;9.75;8.60;;;;;;;17.65;100.00;100709.63;4969982;28;20245;-47
2023/09/18 02:52:40;;;;;;;9.88;8.88;;;;;;;17.66;100.00;100703.22;4965487;28;20280;-46
2023/09/18 02:55:05;;;;;;;9.48;8.40;;;;;;;17.60;100.00;100694.66;4965948;28;20220;-47
2023/09/18 02:57:31;;;;;;;9.57;8.77;;;;;;;17.56;100.00;100696.75;4967173;28;20241;-47
2023/09/18 02:59:56;;;;;;;8.82;7.95;;;;;;;17.58;100.00;100697.50;4973026;28;20219;-48
2023/09/18 03:02:22;;;;;;;8.95;8.15;;;;;;;17.55;100.00;100689.56;4987917;28;20201;-47
2023/09/18 03:04:48;;;;;;;9.65;8.65;;;;;;;17.54;100.00;100695.13;4966605;28;20694;-46
2023/09/18 03:07:13;;;;;;;10.10;9.18;;;;;;;17.55;100.00;100684.16;4980705;28;20753;-48
2023/09/18 03:09:39;;;;;;;9.15;8.00;;;;;;;17.67;100.00;100680.59;4971923;28;20170;-47
2023/09/18 03:12:05;;;;;;;8.82;8.13;;;;;;;17.59;100.00;100685.69;4976787;28;20692;-47
2023/09/18 03:14:30;;;;;;;8.77;7.97;;;;;;;17.66;100.00;100683.41;4971791;28;20181;-45
2023/09/18 03:16:56;;;;;;;9.10;8.18;;;;;;;17.55;100.00;100670.59;4972198;28;20235;-48
2023/09/18 03:19:24;;;;;;;9.18;8.30;;;;;;;17.59;100.00;100661.28;4969971;28;20178;-46
2023/09/18 03:21:50;;;;;;;8.73;7.97;;;;;;;17.56;100.00;100649.78;4975180;28;20220;-46
2023/09/18 03:24:15;;;;;;;9.18;8.20;;;;;;;17.57;100.00;100647.00;4971181;28;20293;-48
2023/09/18 03:26:42;;;;;;;9.95;8.60;;;;;;;17.54;100.00;100655.34;4969955;28;20174;-49
2023/09/18 03:29:07;;;;;;;9.02;8.18;;;;;;;17.58;100.00;100659.56;4975723;28;20182;-47
2023/09/18 03:31:33;;;;;;;9.90;8.25;;;;;;;17.53;100.00;100666.28;4969709;28;20683;-47
2023/09/18 03:33:58;;;;;;;9.15;8.35;;;;;;;17.60;100.00;100651.31;4972684;28;20250;-47
2023/09/18 03:36:26;;;;;;;8.95;8.13;;;;;;;17.56;100.00;100661.53;4969727;28;20292;-47
2023/09/18 03:38:51;;;;;;;11.40;8.15;;;;;;;17.50;100.00;100656.53;4969170;28;20400;-46
2023/09/18 03:41:17;;;;;;;9.35;7.78;;;;;;;17.50;100.00;100656.53;4966797;28;20268;-46
2023/09/18 03:43:43;;;;;;;9.60;8.45;;;;;;;17.54;100.00;100647.22;4969629;28;20560;-47
2023/09/18 03:46:08;;;;;;;8.93;8.13;;;;;;;17.57;100.00;100648.84;4969062;28;20259;-49
2023/09/18 03:48:47;;;;;;;8.38;7.57;;;;;;;17.60;100.00;100641.38;4973307;28;20189;-48
2023/09/18 03:51:15;;;;;;;9.23;8.32;;;;;;;17.58;100.00;100637.91;4969576;28;20202;-45
2023/09/18 03:53:41;;;;;;;8.82;8.02;;;;;;;17.65;100.00;100628.34;4967862;28;20628;-46
2023/09/18 03:56:06;;;;;;;8.57;7.80;;;;;;;17.62;100.00;100627.69;4977205;28;20202;-46
2023/09/18 03:58:32;;;;;;;8.82;7.95;;;;;;;17.54;100.00;100621.97;4978184;28;20529;-48
2023/09/18 04:00:57;;;;;;;8.68;7.97;;;;;;;17.55;100.00;100619.13;4966305;28;20206;-47
2023/09/18 04:03:23;;;;;;;9.80;8.93;;;;;;;17.51;100.00;100623.03;4977677;28;20178;-46
2023/09/18 04:05:48;;;;;;;9.23;8.30;;;;;;;17.43;100.00;100620.88;4969907;28;20541;-46
2023/09/18 04:08:14;;;;;;;10.57;8.23;;;;;;;17.44;100.00;100619.91;4968402;28;20186;-46
2023/09/18 04:10:40;;;;;;;8.43;7.63;;;;;;;17.46;100.00;100625.22;4966400;28;20177;-46
2023/09/18 04:13:05;;;;;;;9.82;8.20;;;;;;;17.42;100.00;100607.44;4974987;28;20193;-48
2023/09/18 04:15:31;;;;;;;8.82;8.10;;;;;;;17.37;100.00;100615.03;4967169;28;20167;-47
2023/09/18 04:17:56;;;;;;;9.75;8.77;;;;;;;17.42;100.00;100618.28;4969067;28;20175;-47
2023/09/18 04:20:23;;;;;;;10.73;8.50;;;;;;;17.35;100.00;100606.16;4977682;28;20182;-47
2023/09/18 04:23:17;;;;;;;8.95;8.15;;;;;;;17.46;100.00;100598.13;4975338;28;20171;-47
2023/09/18 04:25:43;;;;;;;9.77;8.88;;;;;;;17.37;100.00;100593.38;4975055;28;20666;-47
2023/09/18 04:28:08;;;;;;;8.93;8.02;;;;;;;17.38;100.00;100600.50;4973031;28;20178;-47
2023/09/18 04:30:34;;;;;;;9.40;8.50;;;;;;;17.34;100.00;100591.75;4973215;28;20210;-46
2023/09/18 04:32:59;;;;;;;9.35;8.45;;;;;;;17.34;100.00;100583.63;4970653;28;20189;-47
2023/09/18 04:35:25;;;;;;;8.90;8.07;;;;;;;17.36;100.00;100575.38;4955466;28;20278;-47
2023/09/18 04:37:56;;;;;;;9.13;8.20;;;;;;;17.44;100.00;100575.69;4976756;28;20273;-48
2023/09/18 04:40:21;;;;;;;10.15;8.15;;;;;;;17.38;100.00;100563.47;4979301;28;20178;-48
2023/09/18 04:42:47;;;;;;;9.63;8.73;;;;;;;17.43;100.00;100558.59;4971553;28;20197;-46
2023/09/18 04:45:12;;;;;;;9.20;8.35;;;;;;;17.47;100.00;100559.22;4972275;28;20174;-48
2023/09/18 04:47:38;;;;;;;9.50;8.70;;;;;;;17.45;100.00;100532.25;4978124;28;20624;-48
2023/09/18 04:50:08;;;;;;;10.40;8.07;;;;;;;17.35;100.00;100528.47;4972858;28;20218;-48
2023/09/18 04:52:34;;;;;;;10.05;9.23;;;;;;;17.31;100.00;100524.25;4981015;28;20200;-47
2023/09/18 04:55:00;;;;;;;9.55;8.65;;;;;;;17.34;100.00;100515.94;4980141;28;20256;-47
2023/09/18 04:57:25;;;;;;;9.48;8.57;;;;;;;17.29;100.00;100509.94;4991855;28;20209;-46
2023/09/18 04:59:51;;;;;;;8.20;7.50;;;;;;;17.35;100.00;100517.63;4972876;28;20186;-46
2023/09/18 05:02:16;;;;;;;9.23;8.43;;;;;;;17.34;100.00;100517.75;4976269;28;20227;-47
2023/09/18 05:04:42;;;;;;;9.60;8.70;;;;;;;17.34;100.00;100515.94;4977955;28;20671;-47
2023/09/18 05:07:08;;;;;;;9.30;8.48;;;;;;;17.38;100.00;100519.25;4977305;28;20567;-47
2023/09/18 05:09:34;;;;;;;8.82;8.13;;;;;;;17.35;100.00;100512.22;4979002;28;20173;-48
2023/09/18 05:12:00;;;;;;;9.10;8.30;;;;;;;17.34;100.00;100518.63;4977183;28;20209;-49
2023/09/18 05:14:26;;;;;;;9.30;8.50;;;;;;;17.32;100.00;100520.59;4973848;28;20183;-49
2023/09/18 05:16:51;;;;;;;9.38;8.48;;;;;;;17.33;100.00;100524.16;4965877;28;20665;-48
2023/09/18 05:19:18;;;;;;;9.90;8.60;;;;;;;17.30;100.00;100517.97;4974242;28;20244;-47
2023/09/18 05:21:43;;;;;;;9.02;8.13;;;;;;;17.29;100.00;100518.97;4978186;28;20194;-48
2023/09/18 05:24:09;;;;;;;9.98;8.10;;;;;;;17.35;100.00;100519.50;4975524;28;20226;-47
2023/09/18 05:26:35;;;;;;;9.35;8.32;;;;;;;17.34;100.00;100523.16;4973183;28;20187;-46
2023/09/18 05:29:00;;;;;;;8.65;7.85;;;;;;;17.41;100.00;100506.38;4977507;28;20181;-47
2023/09/18 05:31:26;;;;;;;9.52;8.57;;;;;;;17.41;100.00;100510.94;4973461;28;20613;-46
2023/09/18 05:33:52;;;;;;;8.98;8.18;;;;;;;17.47;100.00;100492.38;4972327;28;20179;-47
2023/09/18 05:36:17;;;;;;;9.23;8.35;;;;;;;17.43;100.00;100495.44;4975067;28;20225;-48
2023/09/18 05:38:45;;;;;;;9.75;8.25;;;;;;;17.41;100.00;100491.97;4979975;28;20201;-47
2023/09/18 05:41:11;;;;;;;9.40;8.45;;;;;;;17.41;100.00;100490.13;4972091;28;20218;-47
2023/09/18 05:43:36;;;;;;;9.38;8.48;;;;;;;17.45;100.00;100485.34;4968932;28;20197;-48
2023/09/18 05:46:02;;;;;;;8.93;8.10;;;;;;;17.43;100.00;100471.06;4974920;28;20201;-46
2023/09/18 05:48:28;;;;;;;9.27;8.35;;;;;;;17.55;100.00;100464.72;4976718;28;20182;-48
2023/09/18 05:50:54;;;;;;;9.70;8.60;;;;;;;17.53;100.00;100460.41;4969385;28;20210;-47
2023/09/18 05:53:20;;;;;;;8.93;8.20;;;;;;;17.50;100.00;100458.78;4971550;28;20170;-46
2023/09/18 05:55:47;;;;;;;8.73;7.82;;;;;;;17.59;100.00;100459.97;4976690;28;20238;-47
2023/09/18 05:58:13;;;;;;;9.43;8.40;;;;;;;17.79;100.00;100455.78;4973622;28;20211;-49
2023/09/18 06:00:39;;;;;;;9.02;8.15;;;;;;;18.10;100.00;100457.06;4966617;28;20175;-47
2023/09/18 06:03:06;;;;;;;9.25;8.43;;;;;;;18.25;100.00;100446.91;4976294;28;20310;-47
2023/09/18 06:05:33;;;;;;;7.95;7.22;;;;;;;18.46;100.00;100439.84;4975085;28;20186;-48
2023/09/18 06:08:00;;;;;;;8.57;7.78;;;;;;;18.39;100.00;100430.47;4969662;28;20261;-46
2023/09/18 06:10:25;;;;;;;8.52;7.72;;;;;;;18.30;100.00;100414.88;4966006;28;20194;-47
2023/09/18 06:12:51;;;;;;;7.72;7.13;;;;;;;18.21;100.00;100416.44;4973735;28;20551;-47
2023/09/18 06:15:16;;;;;;;8.40;7.35;;;;;;;18.15;100.00;100407.91;4967850;28;20202;-48
2023/09/18 06:17:43;;;;;;;8.55;7.82;;;;;;;18.08;100.00;100405.69;4965856;28;20241;-48
2023/09/18 06:20:11;;;;;;;8.00;7.25;;;;;;;18.08;100.00;100402.09;4966872;28;20205;-45
2023/09/18 06:22:38;;;;;;;8.50;7.70;;;;;;;18.07;100.00;100403.09;4972250;28;20204;-48
2023/09/18 06:25:05;;;;;;;11.18;7.40;;;;;;;18.08;100.00;100405.69;4971208;28;20173;-46
2023/09/18 06:27:32;;;;;;;8.35;7.55;;;;;;;18.22;100.00;100391.06;4968750;28;20704;-46
2023/09/18 06:29:58;;;;;;;8.10;7.30;;;;;;;18.50;100.00;100392.50;4976678;28;20191;-48
2023/09/18 06:32:23;;;;;;;7.78;7.10;;;;;;;18.55;100.00;100384.00;4966976;28;20656;-47
2023/09/18 06:34:49;;;;;;;8.18;7.38;;;;;;;18.40;100.00;100377.91;4968395;28;20265;-48
2023/09/18 06:37:14;;;;;;;8.23;7.53;;;;;;;18.33;100.00;100372.09;4969065;28;20222;-48
2023/09/18 06:39:40;;;;;;;8.93;7.25;;;;;;;18.44;100.00;100365.00;4975878;28;20234;-46
2023/09/18 06:42:05;;;;;;;8.65;6.93;;;;;;;18.26;100.00;100370.88;4978048;28;20202;-45
2023/09/18 06:44:31;;;;;;;8.32;7.45;;;;;;;18.23;100.00;100353.97;4967468;28;20178;-45
2023/09/18 06:46:56;;;;;;;8.32;7.30;;;;;;;18.33;100.00;100349.56;4973237;28;20541;-47
2023/09/18 06:49:22;;;;;;;7.75;7.00;;;;;;;18.76;100.00;100335.31;4968645;28;20557;-48
2023/09/18 06:51:48;;;;;;;7.57;6.82;;;;;;;18.98;100.00;100329.03;4972508;28;20644;-47
2023/09/18 06:54:13;;;;;;;7.85;7.05;;;;;;;19.24;100.00;100331.44;4970589;28;20671;-46
2023/09/18 06:56:38;;;;;;;7.53;6.70;;;;;;;19.53;98.90;100319.00;4972295;28;20259;-46
2023/09/18 06:59:04;;;;;;;7.38;6.68;;;;;;;19.73;96.82;100314.63;4966604;28;20364;-47
2023/09/18 07:01:31;;;;;;;7.65;6.00;;;;;;;19.86;95.60;100302.72;4974155;28;20202;-47
2023/09/18 07:03:59;;;;;;;7.22;6.03;;;;;;;19.97;93.96;100289.06;4968067;28;20617;-47
2023/09/18 07:06:24;;;;;;;7.25;6.22;;;;;;;19.85;92.58;100284.69;4968261;28;20554;-45
2023/09/18 07:08:50;;;;;;;6.43;5.93;;;;;;;19.86;92.15;100289.13;4971334;28;20182;-46
2023/09/18 07:11:16;;;;;;;6.97;6.22;;;;;;;19.98;91.75;100289.94;4970917;28;20201;-46
2023/09/18 07:13:43;;;;;;;6.63;6.03;;;;;;;20.01;91.16;100295.13;4972741;28;20269;-45
2023/09/18 07:16:09;;;;;;;6.47;5.78;;;;;;;20.11;90.70;100280.56;4970056;28;20251;-46
2023/09/18 07:18:34;;;;;;;8.70;6.28;;;;;;;20.19;90.20;100279.91;4971845;28;20174;-47
2023/09/18 07:21:00;;;;;;;6.28;5.68;;;;;;;20.30;89.36;100271.66;4968828;28;20260;-47
2023/09/18 07:23:25;;;;;;;8.23;5.93;;;;;;;20.36;88.68;100273.00;4969258;28;20633;-48
2023/09/18 07:25:51;;;;;;;6.53;5.93;;;;;;;20.48;88.00;100273.75;4973327;28;20225;-48
2023/09/18 07:28:19;;;;;;;6.70;5.97;;;;;;;20.41;87.52;100251.66;4970717;28;20206;-46
2023/09/18 07:30:44;;;;;;;7.88;6.53;;;;;;;20.57;87.17;100256.63;4969289;28;20195;-46
2023/09/18 07:33:10;;;;;;;7.25;5.80;;;;;;;20.46;86.47;100252.09;4970478;28;20841;-46
2023/09/18 07:35:36;;;;;;;6.13;5.50;;;;;;;20.44;86.38;100245.09;4970053;28;20196;-48
2023/09/18 07:38:01;;;;;;;7.13;5.97;;;;;;;20.41;86.55;100246.22;4971327;28;20184;-49
2023/09/18 07:40:27;;;;;;;7.03;6.05;;;;;;;20.40;86.25;100244.50;4969456;28;20228;-46
2023/09/18 07:42:53;;;;;;;7.63;5.85;;;;;;;20.61;86.46;100243.63;4968922;28;20192;-48
2023/09/18 07:45:18;;;;;;;6.50;5.90;;;;;;;20.52;86.09;100237.97;4970669;28;20586;-47
2023/09/18 07:47:44;;;;;;;10.43;5.88;;;;;;;20.55;86.06;100234.09;4973577;28;20174;-46
2023/09/18 07:50:10;;;;;;;9.30;5.95;;;;;;;20.80;85.18;100231.94;4968475;28;20181;-45
2023/09/18 07:52:36;;;;;;;5.88;5.35;;;;;;;20.73;85.05;100232.50;4974370;28;20214;-45
2023/09/18 07:55:02;;;;;;;6.68;6.07;;;;;;;20.89;85.36;100226.50;4970201;28;20193;-47
2023/09/18 07:57:32;;;;;;;5.97;5.38;;;;;;;20.98;84.85;100222.94;4969164;28;20197;-50
2023/09/18 07:59:58;;;;;;;6.28;5.70;;;;;;;20.90;85.05;100211.91;4969355;28;20239;-47
2023/09/18 08:02:25;;;;;;;6.10;5.50;;;;;;;20.71;85.10;100217.31;4971795;28;20197;-47
2023/09/18 08:04:52;;;;;;;6.50;5.70;;;;;;;20.66;85.36;100204.09;4970554;28;20209;-47
2023/09/18 08:07:19;;;;;;;5.63;5.22;;;;;;;20.77;85.28;100194.94;4981159;28;20320;-46
2023/09/18 08:09:46;;;;;;;6.05;5.43;;;;;;;20.71;85.31;100190.06;4975891;28;20193;-47
2023/09/18 08:12:11;;;;;;;10.65;5.40;;;;;;;20.66;85.69;100186.88;4973005;28;20205;-47
2023/09/18 08:14:37;;;;;;;6.30;5.18;;;;;;;20.75;85.28;100184.22;4976203;28;20185;-47
2023/09/18 08:17:07;;;;;;;5.82;5.20;;;;;;;20.71;85.29;100184.63;4981486;28;20208;-47
2023/09/18 08:19:33;;;;;;;6.00;5.30;;;;;;;20.89;85.87;100190.25;4974751;28;20187;-47
2023/09/18 08:21:59;;;;;;;5.72;5.13;;;;;;;20.88;85.33;100180.34;4968642;28;20579;-47
2023/09/18 08:24:25;;;;;;;6.25;5.05;;;;;;;21.03;84.74;100178.91;4979052;28;20550;-48
2023/09/18 08:26:51;;;;;;;6.00;5.25;;;;;;;21.09;84.41;100182.97;4974031;28;20169;-49
2023/09/18 08:29:17;;;;;;;16.60;5.70;;;;;;;21.19;84.76;100173.78;4976140;28;20193;-46
2023/09/18 08:31:43;;;;;;;6.05;4.68;;;;;;;21.31;84.54;100174.50;4975057;28;20496;-47
2023/09/18 08:34:08;;;;;;;8.98;5.10;;;;;;;21.46;83.46;100165.91;4978899;28;20244;-47
2023/09/18 08:36:34;;;;;;;5.15;4.65;;;;;;;21.43;82.79;100172.53;4977443;28;20297;-46
2023/09/18 08:38:59;;;;;;;5.40;4.90;;;;;;;21.46;82.43;100164.03;4972806;28;20182;-48
2023/09/18 08:41:30;;;;;;;5.30;4.80;;;;;;;21.57;82.52;100152.97;4977959;28;20623;-48
2023/09/18 08:44:03;;;;;;;4.57;4.18;;;;;;;21.98;81.40;100153.59;4974128;28;20684;-46
2023/09/18 08:46:29;;;;;;;4.68;4.28;;;;;;;22.07;80.23;100134.63;4977319;28;20181;-46
2023/09/18 08:48:56;;;;;;;5.10;4.60;;;;;;;22.08;79.78;100128.13;4972413;28;20185;-48
2023/09/18 08:51:22;;;;;;;5.65;4.32;;;;;;;22.02;79.73;100129.63;4993228;28;20276;-48
2023/09/18 08:53:49;;;;;;;5.38;4.53;;;;;;;22.09;79.96;100117.09;4971758;28;20185;-47
2023/09/18 08:56:16;;;;;;;5.32;4.82;;;;;;;22.13;79.73;100121.22;4965501;28;20209;-47
2023/09/18 08:58:43;;;;;;;6.25;4.30;;;;;;;22.26;79.22;100118.19;4979080;28;20177;-47
2023/09/18 09:01:10;;;;;;;6.78;4.45;;;;;;;22.18;79.11;100115.31;4976301;28;20222;-48
2023/09/18 09:03:45;;;;;;;4.32;4.00;;;;;;;22.14;78.92;100094.81;4965070;28;20178;-46
2023/09/18 09:06:11;;;;;;;4.32;3.92;;;;;;;22.08;79.08;100095.41;4972060;28;20275;-47
2023/09/18 09:08:37;;;;;;;6.22;4.18;;;;;;;22.04;79.27;100094.88;4975252;28;20232;-47
2023/09/18 09:11:03;;;;;;;7.50;4.03;;;;;;;21.97;79.62;100094.59;4971515;28;20194;-47
2023/09/18 09:13:29;;;;;;;4.07;3.67;;;;;;;21.99;79.27;100086.25;4964776;28;20256;-49
2023/09/18 09:15:57;;;;;;;5.30;3.92;;;;;;;22.01;79.13;100086.97;4974615;28;20204;-48
2023/09/18 09:18:25;;;;;;;4.63;4.10;;;;;;;22.08;78.51;100088.06;4970892;28;20192;-49
2023/09/18 09:20:57;;;;;;;4.53;4.07;;;;;;;22.13;78.56;100069.41;4967037;28;20232;-45
2023/09/18 09:23:23;;;;;;;4.70;4.20;;;;;;;22.16;78.57;100070.94;4973560;28;20176;-49
2023/09/18 09:25:49;;;;;;;6.18;3.97;;;;;;;22.14;78.81;100078.44;4974963;28;20188;-48
2023/09/18 09:28:14;;;;;;;4.15;3.70;;;;;;;22.20;77.77;100066.91;4967796;28;20831;-47
2023/09/18 09:30:40;;;;;;;4.20;3.90;;;;;;;22.17;77.44;100062.63;4963428;28;20683;-47
2023/09/18 09:33:07;;;;;;;6.25;4.07;;;;;;;22.12;77.41;100067.66;4976058;28;20204;-49
2023/09/18 09:35:36;;;;;;;3.80;3.50;;;;;;;22.06;77.92;100089.22;4971097;28;20182;-47
2023/09/18 09:38:15;;;;;;;4.20;3.80;;;;;;;22.02;78.17;100085.97;4965485;28;20188;-47
2023/09/18 09:40:42;;;;;;;5.28;3.97;;;;;;;22.10;77.49;100075.13;4963444;28;20330;-47
2023/09/18 09:43:10;;;;;;;8.35;3.92;;;;;;;22.06;76.86;100065.53;4977062;28;20669;-46
2023/09/18 09:45:36;;;;;;;4.82;3.70;;;;;;;22.05;76.73;100063.84;4975867;28;20169;-47
2023/09/18 09:48:06;;;;;;;5.18;3.92;;;;;;;22.08;76.81;100070.84;4972867;28;20553;-48
2023/09/18 09:50:33;;;;;;;4.05;3.65;;;;;;;22.07;76.59;100082.78;4971720;28;20553;-45
2023/09/18 09:52:59;;;;;;;9.07;4.35;;;;;;;22.06;76.78;100061.97;4968542;28;20180;-46
2023/09/18 09:55:27;;;;;;;6.47;4.43;;;;;;;22.11;76.30;100052.31;4968256;28;20194;-47
2023/09/18 09:58:04;;;;;;;6.47;3.90;;;;;;;22.14;76.04;100060.19;4968946;28;20213;-46
2023/09/18 10:00:44;;;;;;;6.00;3.63;;;;;;;22.22;76.32;100070.38;4973294;28;20538;-45
2023/09/18 10:03:13;;;;;;;4.88;3.78;;;;;;;22.25;75.95;100058.31;4966506;28;20201;-45
2023/09/18 10:05:41;;;;;;;4.43;4.03;;;;;;;22.24;76.31;100062.03;4968540;28;20196;-46
2023/09/18 10:08:12;;;;;;;6.28;4.15;;;;;;;22.21;76.11;100057.69;4973343;28;20260;-46
2023/09/18 10:10:49;;;;;;;4.07;3.67;;;;;;;22.20;75.89;100045.09;4965841;28;20192;-46
2023/09/18 10:13:28;;;;;;;4.40;4.00;;;;;;;22.10;76.00;100058.75;4970795;28;20208;-45
2023/09/18 10:15:56;;;;;;;4.47;3.88;;;;;;;22.14;75.97;100060.19;4970130;28;20200;-45
2023/09/18 10:18:49;;;;;;;4.53;4.20;;;;;;;22.09;76.42;100070.69;4974608;28;20702;-46
2023/09/18 10:21:31;;;;;;;4.15;3.80;;;;;;;22.28;76.34;100088.00;4973109;28;20469;-45
2023/09/18 10:24:06;;;;;;;5.30;4.20;;;;;;;22.39;75.89;100071.41;4970007;28;20236;-47
2023/09/18 10:26:38;;;;;;;5.65;4.38;;;;;;;22.47;75.65;100068.78;4976485;28;20202;-46
2023/09/18 10:29:05;;;;;;;7.40;4.13;;;;;;;22.40;75.53;100070.41;4965719;28;20256;-45
2023/09/18 10:31:34;;;;;;;4.75;4.07;;;;;;;22.42;76.13;100073.84;4969758;28;20755;-46
2023/09/18 10:34:02;;;;;;;4.63;4.00;;;;;;;22.46;75.75;100058.88;4971797;28;20511;-47
2023/09/18 10:36:30;;;;;;;5.43;3.88;;;;;;;22.46;75.02;100056.16;4969782;28;20558;-46
2023/09/18 10:38:58;;;;;;;4.35;3.88;;;;;;;22.43;75.01;100048.25;4972508;28;20197;-47
2023/09/18 10:41:25;;;;;;;5.65;3.88;;;;;;;22.38;75.70;100047.88;4963170;28;20202;-46
2023/09/18 10:43:53;;;;;;;6.35;3.75;;;;;;;22.42;75.38;100036.47;4971129;28;20198;-47
2023/09/18 10:46:20;;;;;;;6.20;4.10;;;;;;;22.40;75.99;100043.97;4972728;28;20625;-48
2023/09/18 10:48:47;;;;;;;4.00;3.70;;;;;;;22.34;76.09;100052.75;4969911;28;20657;-47
2023/09/18 10:51:13;;;;;;;5.32;4.28;;;;;;;22.24;76.39;100049.25;4969618;28;20209;-46
2023/09/18 10:53:40;;;;;;;5.10;4.05;;;;;;;22.11;77.10;100068.69;4964832;28;20189;-47
2023/09/18 10:56:06;;;;;;;5.88;3.85;;;;;;;21.99;77.65;100058.97;4969272;28;20217;-46
2023/09/18 10:58:35;;;;;;;6.10;4.07;;;;;;;22.03;77.78;100076.75;4966686;28;20271;-48
2023/09/18 11:01:04;;;;;;;4.40;3.95;;;;;;;22.02;78.20;100062.28;4972469;28;20225;-46
2023/09/18 11:03:33;;;;;;;5.80;3.88;;;;;;;22.14;78.05;100057.47;4970498;28;20182;-47
2023/09/18 11:06:07;;;;;;;6.07;3.90;;;;;;;22.11;78.19;100073.28;4966202;28;20174;-49
2023/09/18 11:08:45;;;;;;;6.07;4.15;;;;;;;22.19;78.58;100081.56;4970213;28;20264;-47
2023/09/18 11:11:14;;;;;;;4.65;4.07;;;;;;;22.13;78.33;100074.84;4969906;28;20228;-48
2023/09/18 11:13:41;;;;;;;4.55;3.95;;;;;;;22.21;78.26;100071.34;4971673;28;20178;-47
2023/09/18 11:16:21;;;;;;;4.93;4.43;;;;;;;22.14;78.18;100067.53;4967191;28;20216;-48
2023/09/18 11:18:52;;;;;;;6.05;4.00;;;;;;;22.30;78.33;100075.06;4969037;28;20224;-49